createdAt,value
2022-11-21T00:03:33.062Z,98392.59
2022-11-21T00:05:59.723Z,98374.00
2022-11-21T00:08:26.426Z,98362.72
2022-11-21T00:10:53.088Z,98376.97
2022-11-21T00:13:20.973Z,98379.34
2022-11-21T00:15:48.378Z,98391.91
2022-11-21T00:18:15.771Z,98394.66
2022-11-21T00:20:43.546Z,98385.53
2022-11-21T00:23:10.999Z,98383.84
2022-11-21T00:25:38.913Z,98368.25
2022-11-21T00:28:06.099Z,98384.69
2022-11-21T00:30:32.989Z,98373.25
2022-11-21T00:32:59.799Z,98354.44
2022-11-21T00:35:27.235Z,98365.38
2022-11-21T00:37:54.055Z,98368.03
2022-11-21T00:40:20.758Z,98368.78
2022-11-21T00:42:47.442Z,98350.00
2022-11-21T00:45:15.580Z,98357.94
2022-11-21T00:47:43.998Z,98355.41
2022-11-21T00:50:11.118Z,98358.06
2022-11-21T00:52:37.849Z,98339.13
2022-11-21T00:55:04.732Z,98336.97
2022-11-21T00:57:31.438Z,98344.22
2022-11-21T00:59:58.182Z,98345.19
2022-11-21T01:02:24.909Z,98332.53
2022-11-21T01:04:51.598Z,98330.72
2022-11-21T01:07:18.310Z,98336.16
2022-11-21T01:09:45.079Z,98333.28
2022-11-21T01:12:11.880Z,98330.63
2022-11-21T01:14:38.616Z,98329.06
2022-11-21T01:17:05.401Z,98318.84
2022-11-21T01:19:32.255Z,98319.31
2022-11-21T01:21:58.990Z,98309.78
2022-11-21T01:24:25.877Z,98313.41
2022-11-21T01:26:54.316Z,98283.91
2022-11-21T01:29:21.127Z,98291.25
2022-11-21T01:31:47.869Z,98306.19
2022-11-21T01:34:15.237Z,98277.53
2022-11-21T01:36:42.360Z,98289.69
2022-11-21T01:39:10.633Z,98276.34
2022-11-21T01:41:45.348Z,98301.84
2022-11-21T01:44:27.521Z,98311.47
2022-11-21T01:46:54.530Z,98298.72
2022-11-21T01:49:24.001Z,98310.53
2022-11-21T01:51:54.330Z,98305.34
2022-11-21T01:54:36.471Z,98305.84
2022-11-21T01:57:14.844Z,98299.59
2022-11-21T02:00:11.898Z,98300.69
2022-11-21T02:02:46.252Z,98307.06
2022-11-21T02:05:21.110Z,98309.22
2022-11-21T02:07:49.519Z,98296.22
2022-11-21T02:10:17.134Z,98314.78
2022-11-21T02:12:52.572Z,98309.22
2022-11-21T02:15:22.551Z,98292.94
2022-11-21T02:17:49.365Z,98282.84
2022-11-21T02:20:19.172Z,98277.28
2022-11-21T02:23:04.222Z,98291.50
2022-11-21T02:25:35.462Z,98279.56
2022-11-21T02:28:06.350Z,98281.03
2022-11-21T02:30:36.326Z,98275.00
2022-11-21T02:33:03.202Z,98267.28
2022-11-21T02:35:30.200Z,98272.47
2022-11-21T02:38:04.127Z,98269.69
2022-11-21T02:40:40.226Z,98272.09
2022-11-21T02:43:22.655Z,98267.53
2022-11-21T02:45:49.612Z,98262.94
2022-11-21T02:48:16.441Z,98281.97
2022-11-21T02:50:45.539Z,98265.34
2022-11-21T02:53:14.967Z,98274.38
2022-11-21T02:55:42.469Z,98278.38
2022-11-21T02:58:10.096Z,98284.28
2022-11-21T03:00:38.304Z,98294.34
2022-11-21T03:03:05.149Z,98283.72
2022-11-21T03:05:32.619Z,98290.72
2022-11-21T03:07:59.357Z,98284.44
2022-11-21T03:10:26.291Z,98309.47
2022-11-21T03:13:01.193Z,98307.44
2022-11-21T03:15:33.617Z,98310.78
2022-11-21T03:18:03.894Z,98298.00
2022-11-21T03:20:32.161Z,98299.56
2022-11-21T03:22:59.240Z,98318.97
2022-11-21T03:25:25.989Z,98329.56
2022-11-21T03:27:53.815Z,98335.09
2022-11-21T03:30:21.590Z,98321.84
2022-11-21T03:32:48.668Z,98338.19
2022-11-21T03:35:15.810Z,98312.56
2022-11-21T03:37:42.737Z,98308.88
2022-11-21T03:40:10.392Z,98323.16
2022-11-21T03:42:37.124Z,98310.88
2022-11-21T03:45:04.186Z,98280.84
2022-11-21T03:47:30.951Z,98304.38
2022-11-21T03:49:57.678Z,98250.72
2022-11-21T03:52:24.478Z,98285.53
2022-11-21T03:54:51.206Z,98276.41
2022-11-21T03:57:17.909Z,98276.28
2022-11-21T03:59:44.553Z,98254.59
2022-11-21T04:02:11.287Z,98266.69
2022-11-21T04:04:37.970Z,98266.63
2022-11-21T04:07:04.792Z,98246.09
2022-11-21T04:09:31.458Z,98248.94
2022-11-21T04:11:58.157Z,98258.59
2022-11-21T04:14:24.827Z,98244.72
2022-11-21T04:16:51.625Z,98256.31
2022-11-21T04:19:18.340Z,98264.69
2022-11-21T04:21:45.071Z,98247.56
2022-11-21T04:24:11.785Z,98247.13
2022-11-21T04:26:38.428Z,98244.06
2022-11-21T04:29:05.100Z,98260.78
2022-11-21T04:31:32.072Z,98251.78
2022-11-21T04:33:59.070Z,98240.09
2022-11-21T04:36:25.816Z,98231.69
2022-11-21T04:38:52.563Z,98242.84
2022-11-21T04:41:19.248Z,98244.13
2022-11-21T04:43:45.931Z,98237.16
2022-11-21T04:46:12.612Z,98225.59
2022-11-21T04:48:39.352Z,98226.13
2022-11-21T04:51:05.990Z,98239.16
2022-11-21T04:53:32.622Z,98216.66
2022-11-21T04:56:00.398Z,98236.56
2022-11-21T04:58:27.191Z,98228.25
2022-11-21T05:00:53.852Z,98208.28
2022-11-21T05:03:20.585Z,98191.91
2022-11-21T05:05:47.757Z,98208.09
2022-11-21T05:08:14.814Z,98220.34
2022-11-21T05:11:01.718Z,98215.44
2022-11-21T05:13:28.396Z,98218.56
2022-11-21T05:15:58.760Z,98226.50
2022-11-21T05:18:25.578Z,98215.56
2022-11-21T05:20:52.321Z,98218.59
2022-11-21T05:23:19.040Z,98203.16
2022-11-21T05:25:45.759Z,98186.66
2022-11-21T05:28:12.496Z,98191.47
2022-11-21T05:30:39.212Z,98192.28
2022-11-21T05:33:05.996Z,98216.34
2022-11-21T05:35:32.783Z,98216.63
2022-11-21T05:37:59.597Z,98208.22
2022-11-21T05:40:26.644Z,98200.97
2022-11-21T05:43:12.147Z,98199.16
2022-11-21T05:45:39.125Z,98215.63
2022-11-21T05:48:08.982Z,98215.56
2022-11-21T05:50:36.843Z,98209.97
2022-11-21T05:53:04.767Z,98197.88
2022-11-21T05:55:34.023Z,98196.94
2022-11-21T05:58:01.255Z,98182.38
2022-11-21T06:00:28.818Z,98192.91
2022-11-21T06:03:14.682Z,98199.97
2022-11-21T06:05:41.512Z,98198.19
2022-11-21T06:08:08.235Z,98167.50
2022-11-21T06:10:34.999Z,98177.75
2022-11-21T06:13:02.476Z,98154.19
2022-11-21T06:15:29.604Z,98168.91
2022-11-21T06:17:56.366Z,98170.75
2022-11-21T06:20:23.094Z,98169.16
2022-11-21T06:22:49.894Z,98161.78
2022-11-21T06:25:16.607Z,98128.19
2022-11-21T06:27:43.363Z,98143.75
2022-11-21T06:30:10.526Z,98124.69
2022-11-21T06:32:38.198Z,98150.97
2022-11-21T06:35:05.393Z,98155.16
2022-11-21T06:37:32.060Z,98159.25
2022-11-21T06:39:59.841Z,98159.41
2022-11-21T06:42:26.658Z,98160.97
2022-11-21T06:44:53.662Z,98159.16
2022-11-21T06:47:20.425Z,98161.94
2022-11-21T06:49:47.390Z,98149.31
2022-11-21T06:52:14.161Z,98161.19
2022-11-21T06:54:41.000Z,98167.63
2022-11-21T06:57:07.898Z,98168.72
2022-11-21T06:59:34.572Z,98180.22
2022-11-21T07:02:01.367Z,98177.41
2022-11-21T07:04:28.242Z,98184.16
2022-11-21T07:06:55.117Z,98164.25
2022-11-21T07:09:37.159Z,98162.16
2022-11-21T07:12:22.420Z,98121.84
2022-11-21T07:14:49.195Z,98176.47
2022-11-21T07:17:16.073Z,98178.69
2022-11-21T07:19:42.785Z,98184.84
2022-11-21T07:22:09.582Z,98178.59
2022-11-21T07:24:36.460Z,98182.81
2022-11-21T07:27:03.193Z,98185.88
2022-11-21T07:29:30.345Z,98164.00
2022-11-21T07:31:57.439Z,98160.13
2022-11-21T07:34:24.118Z,98170.78
2022-11-21T07:36:51.005Z,98174.13
2022-11-21T07:39:17.639Z,98176.63
2022-11-21T07:41:44.360Z,98163.34
2022-11-21T07:44:11.073Z,98170.47
2022-11-21T07:46:37.787Z,98178.47
2022-11-21T07:49:04.702Z,98173.44
2022-11-21T07:51:31.516Z,98137.59
2022-11-21T07:53:58.285Z,98188.72
2022-11-21T07:56:26.721Z,98182.25
2022-11-21T07:58:53.553Z,98185.34
2022-11-21T08:01:20.410Z,98176.94
2022-11-21T08:03:47.209Z,98159.72
2022-11-21T08:06:14.192Z,98187.00
2022-11-21T08:08:40.887Z,98177.59
2022-11-21T08:11:07.745Z,98170.19
2022-11-21T08:13:35.670Z,98166.25
2022-11-21T08:16:05.844Z,98164.69
2022-11-21T08:18:32.701Z,98174.19
2022-11-21T08:21:02.558Z,98148.44
2022-11-21T08:23:29.760Z,98157.13
2022-11-21T08:25:56.501Z,98177.44
2022-11-21T08:28:23.391Z,98182.03
2022-11-21T08:30:50.066Z,98175.41
2022-11-21T08:33:16.870Z,98162.50
2022-11-21T08:35:43.519Z,98170.25
2022-11-21T08:38:10.212Z,98189.03
2022-11-21T08:40:37.070Z,98150.41
2022-11-21T08:43:09.427Z,98189.19
2022-11-21T08:45:38.106Z,98194.41
2022-11-21T08:48:08.993Z,98199.00
2022-11-21T08:50:35.731Z,98180.81
2022-11-21T08:53:03.126Z,98194.22
2022-11-21T08:55:30.756Z,98195.78
2022-11-21T08:57:57.655Z,98198.91
2022-11-21T09:00:24.474Z,98190.47
2022-11-21T09:02:51.229Z,98189.88
2022-11-21T09:05:18.259Z,98188.91
2022-11-21T09:07:45.112Z,98180.59
2022-11-21T09:10:11.911Z,98178.84
2022-11-21T09:12:38.763Z,98189.53
2022-11-21T09:15:24.809Z,98166.78
2022-11-21T09:18:03.921Z,98171.44
2022-11-21T09:20:38.391Z,98179.44
2022-11-21T09:23:10.445Z,98189.22
2022-11-21T09:25:37.282Z,98196.84
2022-11-21T09:28:05.651Z,98192.41
2022-11-21T09:30:32.536Z,98197.69
2022-11-21T09:33:07.304Z,98194.91
2022-11-21T09:35:34.680Z,98205.69
2022-11-21T09:38:01.523Z,98188.13
2022-11-21T09:40:30.493Z,98211.56
2022-11-21T09:43:10.803Z,98214.94
2022-11-21T09:45:42.622Z,98205.63
2022-11-21T09:48:17.680Z,98197.03
2022-11-21T09:50:54.973Z,98206.03
2022-11-21T09:53:28.948Z,98233.81
2022-11-21T09:56:07.037Z,98226.66
2022-11-21T09:58:48.944Z,98235.19
2022-11-21T10:01:17.310Z,98233.06
2022-11-21T10:03:47.408Z,98235.59
2022-11-21T10:06:22.079Z,98234.06
2022-11-21T10:09:28.598Z,98225.25
2022-11-21T10:12:13.910Z,98249.81
2022-11-21T10:14:49.733Z,98249.00
2022-11-21T10:17:37.972Z,98248.38
2022-11-21T10:20:16.824Z,98252.63
2022-11-21T10:23:11.071Z,98261.94
2022-11-21T10:25:39.609Z,98267.16
2022-11-21T10:28:28.186Z,98242.94
2022-11-21T10:30:58.845Z,98248.50
2022-11-21T10:33:32.809Z,98240.50
2022-11-21T10:36:05.888Z,98230.53
2022-11-21T10:38:38.621Z,98236.00
2022-11-21T10:41:13.896Z,98237.38
2022-11-21T10:44:23.656Z,98228.28
2022-11-21T10:47:00.943Z,98241.69
2022-11-21T10:49:30.272Z,98240.28
2022-11-21T10:52:12.181Z,98217.84
2022-11-21T10:55:03.672Z,98236.44
2022-11-21T10:57:46.931Z,98241.19
2022-11-21T11:00:15.620Z,98235.94
2022-11-21T11:02:57.682Z,98231.69
2022-11-21T11:05:29.466Z,98228.91
2022-11-21T11:08:11.132Z,98220.47
2022-11-21T11:10:40.053Z,98215.16
2022-11-21T11:13:46.881Z,98199.66
2022-11-21T11:16:19.309Z,98206.97
2022-11-21T11:18:56.670Z,98227.25
2022-11-21T11:21:29.229Z,98218.81
2022-11-21T11:24:10.063Z,98221.81
2022-11-21T11:26:49.525Z,98215.34
2022-11-21T11:29:27.578Z,98217.94
2022-11-21T11:31:54.479Z,98219.22
2022-11-21T11:34:22.244Z,98207.56
2022-11-21T11:37:11.179Z,98205.16
2022-11-21T11:39:48.007Z,98198.81
2022-11-21T11:42:56.412Z,98203.63
2022-11-21T11:46:06.393Z,98186.53
2022-11-21T11:48:56.631Z,98195.75
2022-11-21T11:51:30.590Z,98201.41
2022-11-21T11:54:03.941Z,98185.91
2022-11-21T11:56:37.144Z,98185.84
2022-11-21T11:59:10.041Z,98186.44
2022-11-21T12:01:49.629Z,98193.00
2022-11-21T12:04:22.037Z,98157.59
2022-11-21T12:10:20.981Z,98169.94
2022-11-21T12:13:02.548Z,98171.09
2022-11-21T12:15:50.120Z,98167.53
2022-11-21T12:18:19.885Z,98172.69
2022-11-21T12:21:01.829Z,98182.31
2022-11-21T12:23:40.550Z,98186.28
2022-11-21T12:26:45.101Z,98181.66
2022-11-21T12:29:15.243Z,98187.16
2022-11-21T12:31:47.759Z,98177.75
2022-11-21T12:34:14.410Z,98181.72
2022-11-21T12:36:47.184Z,98170.88
2022-11-21T12:39:32.490Z,98178.44
2022-11-21T12:43:03.011Z,98171.56
2022-11-21T12:45:29.651Z,98172.66
2022-11-21T12:48:40.087Z,98160.50
2022-11-21T12:51:49.357Z,98170.41
2022-11-21T12:54:34.606Z,98160.56
2022-11-21T12:57:14.317Z,98163.84
2022-11-21T13:00:12.498Z,98145.34
2022-11-21T13:02:54.904Z,98137.94
2022-11-21T13:05:29.468Z,98136.53
2022-11-21T13:08:03.797Z,98157.13
2022-11-21T13:10:32.023Z,98150.72
2022-11-21T13:13:26.164Z,98149.19
2022-11-21T13:16:01.693Z,98140.50
2022-11-21T13:18:44.579Z,98150.50
2022-11-21T13:21:49.260Z,98151.44
2022-11-21T13:24:47.809Z,98158.81
2022-11-21T13:27:33.554Z,98147.59
2022-11-21T13:30:07.738Z,98153.19
2022-11-21T13:32:38.832Z,98157.59
2022-11-21T13:35:14.922Z,98153.75
2022-11-21T13:38:02.341Z,98136.50
2022-11-21T13:40:31.915Z,98132.03
2022-11-21T13:43:32.755Z,98140.09
2022-11-21T13:46:00.434Z,98128.38
2022-11-21T13:48:44.811Z,98142.16
2022-11-21T13:51:14.590Z,98137.72
2022-11-21T13:53:59.385Z,98146.19
2022-11-21T13:56:37.569Z,98132.38
2022-11-21T13:59:17.415Z,98110.34
2022-11-21T14:01:56.994Z,98137.94
2022-11-21T14:05:05.734Z,98138.66
2022-11-21T14:07:38.672Z,98134.53
2022-11-21T14:10:24.327Z,98135.50
2022-11-21T14:12:53.851Z,98136.38
2022-11-21T14:15:52.014Z,98110.13
2022-11-21T14:18:38.976Z,98123.88
2022-11-21T14:21:28.619Z,98098.50
2022-11-21T14:24:18.739Z,98130.84
2022-11-21T14:27:06.045Z,98121.84
2022-11-21T14:29:53.092Z,98122.09
2022-11-21T14:32:40.681Z,98128.25
2022-11-21T14:35:27.701Z,98126.31
2022-11-21T14:38:14.952Z,98112.84
2022-11-21T14:41:26.663Z,98121.94
2022-11-21T14:44:18.926Z,98118.44
2022-11-21T14:47:18.469Z,98115.84
2022-11-21T14:50:24.675Z,98112.84
2022-11-21T14:53:12.126Z,98110.06
2022-11-21T14:56:01.733Z,98116.50
2022-11-21T14:58:50.715Z,98108.28
2022-11-21T15:01:37.739Z,98108.56
2022-11-21T15:04:35.047Z,98119.81
2022-11-21T15:07:32.116Z,98113.38
2022-11-21T15:10:29.467Z,98106.22
2022-11-21T15:13:20.378Z,98110.72
2022-11-21T15:16:07.529Z,98098.78
2022-11-21T15:18:55.024Z,98118.38
2022-11-21T15:21:46.420Z,98113.47
2022-11-21T15:24:43.105Z,98119.75
2022-11-21T15:27:32.641Z,98110.59
2022-11-21T15:30:24.414Z,98109.28
2022-11-21T15:33:16.968Z,98106.13
2022-11-21T15:36:14.031Z,98110.69
2022-11-21T15:39:05.508Z,98112.56
2022-11-21T15:41:52.569Z,98098.69
2022-11-21T15:44:58.451Z,98103.38
2022-11-21T15:47:45.467Z,98110.88
2022-11-21T15:50:34.874Z,98093.19
2022-11-21T15:53:22.112Z,98103.69
2022-11-21T15:56:22.712Z,98097.91
2022-11-21T15:59:10.383Z,98082.09
2022-11-21T16:01:57.435Z,98094.50
2022-11-21T16:04:44.546Z,98089.72
2022-11-21T16:07:31.632Z,98087.88
2022-11-21T16:10:26.157Z,98097.47
2022-11-21T16:13:14.850Z,98095.56
2022-11-21T16:16:02.601Z,98093.50
2022-11-21T16:18:50.501Z,98092.53
2022-11-21T16:21:38.130Z,98098.59
2022-11-21T16:24:25.488Z,98091.03
2022-11-21T16:27:13.017Z,98092.03
2022-11-21T16:30:00.558Z,98075.16
2022-11-21T16:32:47.679Z,98081.97
2022-11-21T16:35:38.151Z,98075.69
2022-11-21T16:38:29.463Z,98091.22
2022-11-21T16:41:22.207Z,98065.53
2022-11-21T16:44:16.646Z,98092.09
2022-11-21T16:47:08.304Z,98082.28
2022-11-21T16:49:56.433Z,98076.75
2022-11-21T16:52:44.686Z,98083.13
2022-11-21T16:55:32.550Z,98068.22
2022-11-21T16:58:19.760Z,98072.78
2022-11-21T17:01:18.924Z,98058.28
2022-11-21T17:04:06.689Z,98073.50
2022-11-21T17:06:54.093Z,98063.81
2022-11-21T17:09:41.420Z,98059.72
2022-11-21T17:12:28.987Z,98056.34
2022-11-21T17:15:16.747Z,98037.38
2022-11-21T17:18:05.436Z,98039.63
2022-11-21T17:20:53.119Z,98039.78
2022-11-21T17:23:43.295Z,98041.69
2022-11-21T17:26:31.193Z,98034.34
2022-11-21T17:29:19.560Z,98033.75
2022-11-21T17:32:08.611Z,98044.72
2022-11-21T17:34:55.943Z,98045.03
2022-11-21T17:37:43.509Z,98023.63
2022-11-21T17:40:31.285Z,98043.47
2022-11-21T17:43:19.138Z,98029.19
2022-11-21T17:46:11.379Z,98031.00
2022-11-21T17:48:59.731Z,98031.22
2022-11-21T17:51:47.467Z,98004.41
2022-11-21T17:54:36.819Z,98003.56
2022-11-21T17:57:24.398Z,97988.06
2022-11-21T18:00:12.423Z,97976.66
2022-11-21T18:03:01.588Z,97997.91
2022-11-21T18:05:51.772Z,98003.44
2022-11-21T18:08:40.666Z,98014.25
2022-11-21T18:11:39.153Z,98004.53
2022-11-21T18:14:28.227Z,98006.34
2022-11-21T18:17:16.107Z,98008.91
2022-11-21T18:20:03.598Z,98010.47
2022-11-21T18:22:52.113Z,98000.13
2022-11-21T18:25:40.245Z,97994.00
2022-11-21T18:28:28.066Z,97988.84
2022-11-21T18:31:21.056Z,97976.78
2022-11-21T18:34:14.212Z,97971.00
2022-11-21T18:37:02.318Z,97974.88
2022-11-21T18:39:50.077Z,97965.25
2022-11-21T18:42:37.872Z,97959.91
2022-11-21T18:45:31.700Z,97944.25
2022-11-21T18:48:19.684Z,97920.59
2022-11-21T18:51:11.826Z,97961.09
2022-11-21T18:54:07.525Z,97954.63
2022-11-21T18:56:57.199Z,97946.31
2022-11-21T18:59:45.146Z,97945.34
2022-11-21T19:02:33.150Z,97939.97
2022-11-21T19:05:21.066Z,97932.16
2022-11-21T19:08:09.361Z,97930.97
2022-11-21T19:10:57.107Z,97910.38
2022-11-21T19:13:46.447Z,97915.69
2022-11-21T19:16:34.485Z,97906.22
2022-11-21T19:19:37.471Z,97912.59
2022-11-21T19:22:27.057Z,97903.72
2022-11-21T19:25:15.068Z,97908.03
2022-11-21T19:28:06.128Z,97888.22
2022-11-21T19:30:53.760Z,97889.66
2022-11-21T19:33:41.604Z,97885.56
2022-11-21T19:36:29.342Z,97877.56
2022-11-21T19:39:20.969Z,97888.22
2022-11-21T19:42:08.612Z,97879.34
2022-11-21T19:44:57.370Z,97870.94
2022-11-21T19:47:47.434Z,97876.22
2022-11-21T19:50:35.039Z,97872.75
2022-11-21T19:53:23.613Z,97871.75
2022-11-21T19:56:19.127Z,97849.31
2022-11-21T19:59:07.040Z,97875.88
2022-11-21T20:01:56.306Z,97864.31
2022-11-21T20:04:45.219Z,97866.94
2022-11-21T20:07:35.153Z,97868.88
2022-11-21T20:10:24.648Z,97863.69
2022-11-21T20:13:12.569Z,97851.09
2022-11-21T20:16:01.254Z,97848.81
2022-11-21T20:18:49.431Z,97843.88
2022-11-21T20:21:39.812Z,97849.16
2022-11-21T20:24:28.481Z,97845.69
2022-11-21T20:27:16.674Z,97834.75
2022-11-21T20:30:06.980Z,97851.19
2022-11-21T20:32:54.626Z,97826.78
2022-11-21T20:35:46.810Z,97827.63
2022-11-21T20:38:34.989Z,97822.97
2022-11-21T20:41:24.959Z,97830.38
2022-11-21T20:47:26.747Z,97800.19
2022-11-21T20:50:31.376Z,97810.31
2022-11-21T20:53:51.444Z,97790.00
2022-11-21T20:56:34.948Z,97793.75
2022-11-21T20:59:22.906Z,97784.09
2022-11-21T21:02:14.589Z,97778.09
2022-11-21T21:05:02.161Z,97769.69
2022-11-21T21:07:49.538Z,97779.63
2022-11-21T21:11:04.002Z,97770.63
2022-11-21T21:13:47.331Z,97762.31
2022-11-21T21:16:35.771Z,97756.38
2022-11-21T21:19:22.914Z,97734.81
2022-11-21T21:22:10.052Z,97755.84
2022-11-21T21:24:57.212Z,97746.31
2022-11-21T21:27:48.337Z,97744.03
2022-11-21T21:30:39.102Z,97733.69
2022-11-21T21:33:26.173Z,97736.31
2022-11-21T21:36:19.138Z,97730.94
2022-11-21T21:39:06.695Z,97714.34
2022-11-21T21:41:53.891Z,97722.13
2022-11-21T21:44:40.872Z,97722.34
2022-11-21T21:47:28.354Z,97714.31
2022-11-21T21:50:16.051Z,97697.00
2022-11-21T21:53:03.462Z,97686.25
2022-11-21T21:55:50.473Z,97694.66
2022-11-21T21:58:39.954Z,97688.41
2022-11-21T22:01:29.397Z,97696.22
2022-11-21T22:04:16.520Z,97685.06
2022-11-21T22:07:05.593Z,97697.91
2022-11-21T22:09:52.678Z,97682.69
2022-11-21T22:12:43.821Z,97686.75
2022-11-21T22:15:31.247Z,97674.97
2022-11-21T22:18:18.328Z,97689.09
2022-11-21T22:21:16.108Z,97657.25
2022-11-21T22:24:24.906Z,97664.34
2022-11-21T22:27:12.205Z,97659.03
2022-11-21T22:29:59.268Z,97652.44
2022-11-21T22:32:46.340Z,97650.75
2022-11-21T22:35:34.621Z,97650.94
2022-11-21T22:38:21.750Z,97643.63
2022-11-21T22:41:15.510Z,97652.97
2022-11-21T22:44:03.036Z,97639.06
2022-11-21T22:46:50.076Z,97629.09
2022-11-21T22:49:37.124Z,97622.78
2022-11-21T22:52:24.349Z,97624.69
2022-11-21T22:55:11.457Z,97612.81
2022-11-21T22:57:58.632Z,97619.06
2022-11-21T23:00:45.670Z,97618.59
2022-11-21T23:03:33.787Z,97608.75
2022-11-21T23:06:25.494Z,97610.22
2022-11-21T23:09:12.530Z,97609.97
2022-11-21T23:11:59.643Z,97603.94
2022-11-21T23:14:46.731Z,97611.34
2022-11-21T23:17:33.743Z,97600.09
2022-11-21T23:20:20.727Z,97575.91
2022-11-21T23:23:07.774Z,97595.81
2022-11-21T23:25:54.923Z,97594.34
2022-11-21T23:28:41.950Z,97592.19
2022-11-21T23:31:29.062Z,97574.44
2022-11-21T23:34:16.166Z,97571.97
2022-11-21T23:37:03.154Z,97572.31
2022-11-21T23:39:50.296Z,97562.53
2022-11-21T23:42:37.332Z,97549.09
2022-11-21T23:45:24.407Z,97548.25
2022-11-21T23:48:11.952Z,97542.72
2022-11-21T23:50:58.996Z,97545.72
2022-11-21T23:53:45.983Z,97542.13
2022-11-21T23:56:33.069Z,97524.28
2022-11-21T23:59:20.136Z,97544.31
